sensor_id;sensor_type;location;lat;lon;timestamp;P1;durP1;ratioP1;P2;durP2;ratioP2
21036;SDS011;10677;50.942;4.028;2022-07-29T00:02:00;4.35;;;1.60;;
21036;SDS011;10677;50.942;4.028;2022-07-29T00:04:26;4.65;;;1.33;;
21036;SDS011;10677;50.942;4.028;2022-07-29T00:06:51;7.32;;;1.88;;
21036;SDS011;10677;50.942;4.028;2022-07-29T00:09:17;4.32;;;1.20;;
21036;SDS011;10677;50.942;4.028;2022-07-29T00:11:42;4.03;;;1.80;;
21036;SDS011;10677;50.942;4.028;2022-07-29T00:14:08;6.15;;;1.75;;
21036;SDS011;10677;50.942;4.028;2022-07-29T00:16:34;4.75;;;1.83;;
21036;SDS011;10677;50.942;4.028;2022-07-29T00:19:00;4.15;;;1.35;;
21036;SDS011;10677;50.942;4.028;2022-07-29T00:21:25;5.78;;;1.70;;
21036;SDS011;10677;50.942;4.028;2022-07-29T00:23:51;5.72;;;1.90;;
21036;SDS011;10677;50.942;4.028;2022-07-29T00:26:16;7.10;;;2.38;;
21036;SDS011;10677;50.942;4.028;2022-07-29T00:28:42;5.60;;;1.70;;
21036;SDS011;10677;50.942;4.028;2022-07-29T00:31:07;5.57;;;1.83;;
21036;SDS011;10677;50.942;4.028;2022-07-29T00:33:33;8.15;;;1.88;;
21036;SDS011;10677;50.942;4.028;2022-07-29T00:35:59;5.07;;;1.92;;
21036;SDS011;10677;50.942;4.028;2022-07-29T00:38:24;7.82;;;1.90;;
21036;SDS011;10677;50.942;4.028;2022-07-29T00:40:50;5.78;;;2.00;;
21036;SDS011;10677;50.942;4.028;2022-07-29T00:43:16;5.50;;;1.88;;
21036;SDS011;10677;50.942;4.028;2022-07-29T00:45:42;5.65;;;1.70;;
21036;SDS011;10677;50.942;4.028;2022-07-29T00:48:08;5.55;;;1.85;;
21036;SDS011;10677;50.942;4.028;2022-07-29T00:50:34;4.38;;;1.80;;
21036;SDS011;10677;50.942;4.028;2022-07-29T00:53:01;7.55;;;1.88;;
21036;SDS011;10677;50.942;4.028;2022-07-29T00:55:29;5.65;;;1.92;;
21036;SDS011;10677;50.942;4.028;2022-07-29T00:57:55;6.47;;;2.08;;
21036;SDS011;10677;50.942;4.028;2022-07-29T01:00:23;4.70;;;2.25;;
21036;SDS011;10677;50.942;4.028;2022-07-29T01:02:50;5.32;;;1.92;;
21036;SDS011;10677;50.942;4.028;2022-07-29T01:05:25;6.50;;;2.47;;
21036;SDS011;10677;50.942;4.028;2022-07-29T01:07:53;6.22;;;2.08;;
21036;SDS011;10677;50.942;4.028;2022-07-29T01:10:19;6.93;;;2.35;;
21036;SDS011;10677;50.942;4.028;2022-07-29T01:12:46;7.60;;;2.50;;
21036;SDS011;10677;50.942;4.028;2022-07-29T01:15:14;6.35;;;2.30;;
21036;SDS011;10677;50.942;4.028;2022-07-29T01:25:54;5.95;;;2.40;;
21036;SDS011;10677;50.942;4.028;2022-07-29T01:28:39;6.00;;;2.47;;
21036;SDS011;10677;50.942;4.028;2022-07-29T01:34:07;6.05;;;2.78;;
21036;SDS011;10677;50.942;4.028;2022-07-29T01:36:37;4.28;;;2.70;;
21036;SDS011;10677;50.942;4.028;2022-07-29T01:39:11;5.13;;;2.63;;
21036;SDS011;10677;50.942;4.028;2022-07-29T01:41:44;8.15;;;3.42;;
21036;SDS011;10677;50.942;4.028;2022-07-29T01:44:22;7.88;;;2.92;;
21036;SDS011;10677;50.942;4.028;2022-07-29T01:46:58;7.72;;;2.92;;
21036;SDS011;10677;50.942;4.028;2022-07-29T01:49:29;7.10;;;3.05;;
21036;SDS011;10677;50.942;4.028;2022-07-29T01:52:00;5.88;;;2.88;;
21036;SDS011;10677;50.942;4.028;2022-07-29T01:54:37;6.28;;;2.60;;
21036;SDS011;10677;50.942;4.028;2022-07-29T01:57:08;6.88;;;3.13;;
21036;SDS011;10677;50.942;4.028;2022-07-29T01:59:36;7.80;;;2.90;;
21036;SDS011;10677;50.942;4.028;2022-07-29T02:02:03;10.80;;;2.88;;
21036;SDS011;10677;50.942;4.028;2022-07-29T02:04:33;8.95;;;3.10;;
21036;SDS011;10677;50.942;4.028;2022-07-29T02:07:02;6.07;;;3.15;;
21036;SDS011;10677;50.942;4.028;2022-07-29T02:09:31;7.95;;;2.80;;
21036;SDS011;10677;50.942;4.028;2022-07-29T02:12:00;7.93;;;3.83;;
21036;SDS011;10677;50.942;4.028;2022-07-29T02:14:28;8.38;;;3.00;;
21036;SDS011;10677;50.942;4.028;2022-07-29T02:17:02;6.80;;;3.05;;
21036;SDS011;10677;50.942;4.028;2022-07-29T02:19:29;5.10;;;2.75;;
21036;SDS011;10677;50.942;4.028;2022-07-29T02:21:58;7.55;;;3.45;;
21036;SDS011;10677;50.942;4.028;2022-07-29T02:24:25;7.07;;;3.72;;
21036;SDS011;10677;50.942;4.028;2022-07-29T02:26:53;6.38;;;3.30;;
21036;SDS011;10677;50.942;4.028;2022-07-29T02:29:22;5.85;;;3.53;;
21036;SDS011;10677;50.942;4.028;2022-07-29T02:31:50;7.82;;;3.42;;
21036;SDS011;10677;50.942;4.028;2022-07-29T02:34:18;8.10;;;3.50;;
21036;SDS011;10677;50.942;4.028;2022-07-29T02:36:45;8.18;;;3.78;;
21036;SDS011;10677;50.942;4.028;2022-07-29T02:39:13;6.60;;;3.33;;
21036;SDS011;10677;50.942;4.028;2022-07-29T02:44:10;9.80;;;3.90;;
21036;SDS011;10677;50.942;4.028;2022-07-29T02:46:55;6.95;;;3.17;;
21036;SDS011;10677;50.942;4.028;2022-07-29T02:49:37;8.93;;;3.97;;
21036;SDS011;10677;50.942;4.028;2022-07-29T02:52:10;5.88;;;3.33;;
21036;SDS011;10677;50.942;4.028;2022-07-29T02:54:48;5.85;;;3.75;;
21036;SDS011;10677;50.942;4.028;2022-07-29T02:57:54;7.07;;;3.90;;
21036;SDS011;10677;50.942;4.028;2022-07-29T03:00:14;7.70;;;3.80;;
21036;SDS011;10677;50.942;4.028;2022-07-29T03:02:43;8.75;;;4.07;;
21036;SDS011;10677;50.942;4.028;2022-07-29T03:05:17;8.25;;;4.13;;
21036;SDS011;10677;50.942;4.028;2022-07-29T03:07:46;10.45;;;4.10;;
21036;SDS011;10677;50.942;4.028;2022-07-29T03:10:16;8.23;;;4.22;;
21036;SDS011;10677;50.942;4.028;2022-07-29T03:12:42;12.95;;;3.90;;
21036;SDS011;10677;50.942;4.028;2022-07-29T03:15:09;8.90;;;4.05;;
21036;SDS011;10677;50.942;4.028;2022-07-29T03:17:35;9.48;;;4.28;;
21036;SDS011;10677;50.942;4.028;2022-07-29T03:20:02;9.18;;;3.85;;
21036;SDS011;10677;50.942;4.028;2022-07-29T03:22:29;10.77;;;4.53;;
21036;SDS011;10677;50.942;4.028;2022-07-29T03:24:55;8.60;;;4.28;;
21036;SDS011;10677;50.942;4.028;2022-07-29T03:27:21;9.55;;;4.20;;
21036;SDS011;10677;50.942;4.028;2022-07-29T03:29:47;9.60;;;4.53;;
21036;SDS011;10677;50.942;4.028;2022-07-29T03:32:12;7.53;;;4.15;;
21036;SDS011;10677;50.942;4.028;2022-07-29T03:34:38;10.05;;;3.90;;
21036;SDS011;10677;50.942;4.028;2022-07-29T03:37:04;7.22;;;4.15;;
21036;SDS011;10677;50.942;4.028;2022-07-29T03:39:31;7.55;;;3.90;;
21036;SDS011;10677;50.942;4.028;2022-07-29T03:42:01;7.55;;;4.22;;
21036;SDS011;10677;50.942;4.028;2022-07-29T03:44:30;7.45;;;4.10;;
21036;SDS011;10677;50.942;4.028;2022-07-29T03:46:57;8.98;;;4.70;;
21036;SDS011;10677;50.942;4.028;2022-07-29T03:49:26;8.60;;;3.92;;
21036;SDS011;10677;50.942;4.028;2022-07-29T03:51:54;6.82;;;3.90;;
21036;SDS011;10677;50.942;4.028;2022-07-29T03:54:19;6.93;;;4.28;;
21036;SDS011;10677;50.942;4.028;2022-07-29T03:56:46;9.90;;;4.03;;
21036;SDS011;10677;50.942;4.028;2022-07-29T03:59:15;7.95;;;4.45;;
21036;SDS011;10677;50.942;4.028;2022-07-29T04:01:41;5.95;;;3.60;;
21036;SDS011;10677;50.942;4.028;2022-07-29T04:04:09;6.40;;;4.25;;
21036;SDS011;10677;50.942;4.028;2022-07-29T04:06:41;7.18;;;3.90;;
21036;SDS011;10677;50.942;4.028;2022-07-29T04:09:08;8.90;;;3.92;;
21036;SDS011;10677;50.942;4.028;2022-07-29T04:11:35;8.40;;;4.32;;
21036;SDS011;10677;50.942;4.028;2022-07-29T04:14:02;6.68;;;3.65;;
21036;SDS011;10677;50.942;4.028;2022-07-29T04:16:28;7.90;;;3.60;;
21036;SDS011;10677;50.942;4.028;2022-07-29T04:18:53;8.70;;;4.00;;
21036;SDS011;10677;50.942;4.028;2022-07-29T04:21:19;8.02;;;3.92;;
21036;SDS011;10677;50.942;4.028;2022-07-29T04:23:45;9.60;;;4.25;;
21036;SDS011;10677;50.942;4.028;2022-07-29T04:26:14;11.18;;;4.22;;
21036;SDS011;10677;50.942;4.028;2022-07-29T04:28:40;8.18;;;4.07;;
21036;SDS011;10677;50.942;4.028;2022-07-29T04:31:07;7.80;;;4.18;;
21036;SDS011;10677;50.942;4.028;2022-07-29T04:33:32;9.70;;;4.05;;
21036;SDS011;10677;50.942;4.028;2022-07-29T04:35:58;8.52;;;4.50;;
21036;SDS011;10677;50.942;4.028;2022-07-29T04:38:23;7.45;;;4.18;;
21036;SDS011;10677;50.942;4.028;2022-07-29T04:40:49;9.20;;;4.32;;
21036;SDS011;10677;50.942;4.028;2022-07-29T04:43:15;9.82;;;4.07;;
21036;SDS011;10677;50.942;4.028;2022-07-29T04:45:41;7.97;;;4.15;;
21036;SDS011;10677;50.942;4.028;2022-07-29T04:48:06;8.07;;;4.10;;
21036;SDS011;10677;50.942;4.028;2022-07-29T04:50:32;10.77;;;5.35;;
21036;SDS011;10677;50.942;4.028;2022-07-29T04:52:57;8.20;;;4.13;;
21036;SDS011;10677;50.942;4.028;2022-07-29T04:55:23;8.35;;;4.13;;
21036;SDS011;10677;50.942;4.028;2022-07-29T04:57:49;7.72;;;3.80;;
21036;SDS011;10677;50.942;4.028;2022-07-29T05:00:15;7.72;;;4.10;;
21036;SDS011;10677;50.942;4.028;2022-07-29T05:02:41;7.90;;;4.32;;
21036;SDS011;10677;50.942;4.028;2022-07-29T05:05:06;8.63;;;4.18;;
21036;SDS011;10677;50.942;4.028;2022-07-29T05:07:32;7.15;;;3.67;;
21036;SDS011;10677;50.942;4.028;2022-07-29T05:09:58;7.55;;;4.38;;
21036;SDS011;10677;50.942;4.028;2022-07-29T05:12:24;6.00;;;3.45;;
21036;SDS011;10677;50.942;4.028;2022-07-29T05:14:50;7.32;;;3.97;;
21036;SDS011;10677;50.942;4.028;2022-07-29T05:17:17;5.55;;;3.92;;
21036;SDS011;10677;50.942;4.028;2022-07-29T05:19:42;6.32;;;3.60;;
21036;SDS011;10677;50.942;4.028;2022-07-29T05:22:08;8.75;;;4.50;;
21036;SDS011;10677;50.942;4.028;2022-07-29T05:24:34;5.90;;;4.05;;
21036;SDS011;10677;50.942;4.028;2022-07-29T05:26:59;5.47;;;3.50;;
21036;SDS011;10677;50.942;4.028;2022-07-29T05:29:25;6.15;;;3.97;;
21036;SDS011;10677;50.942;4.028;2022-07-29T05:31:51;11.57;;;3.60;;
21036;SDS011;10677;50.942;4.028;2022-07-29T05:34:17;8.60;;;3.85;;
21036;SDS011;10677;50.942;4.028;2022-07-29T05:36:43;6.63;;;4.22;;
21036;SDS011;10677;50.942;4.028;2022-07-29T05:39:10;7.55;;;3.90;;
21036;SDS011;10677;50.942;4.028;2022-07-29T05:41:35;7.07;;;3.85;;
21036;SDS011;10677;50.942;4.028;2022-07-29T05:44:01;6.13;;;3.92;;
21036;SDS011;10677;50.942;4.028;2022-07-29T05:46:27;6.10;;;3.72;;
21036;SDS011;10677;50.942;4.028;2022-07-29T05:48:53;6.00;;;3.80;;
21036;SDS011;10677;50.942;4.028;2022-07-29T05:51:18;7.57;;;3.85;;
21036;SDS011;10677;50.942;4.028;2022-07-29T05:53:44;8.55;;;4.22;;
21036;SDS011;10677;50.942;4.028;2022-07-29T05:56:10;7.10;;;4.10;;
21036;SDS011;10677;50.942;4.028;2022-07-29T05:58:35;6.38;;;4.13;;
21036;SDS011;10677;50.942;4.028;2022-07-29T06:01:01;8.27;;;4.32;;
21036;SDS011;10677;50.942;4.028;2022-07-29T06:03:27;13.25;;;3.55;;
21036;SDS011;10677;50.942;4.028;2022-07-29T06:05:53;6.55;;;4.35;;
21036;SDS011;10677;50.942;4.028;2022-07-29T06:08:19;8.93;;;4.60;;
21036;SDS011;10677;50.942;4.028;2022-07-29T06:10:44;8.40;;;3.97;;
21036;SDS011;10677;50.942;4.028;2022-07-29T06:13:10;9.38;;;4.20;;
21036;SDS011;10677;50.942;4.028;2022-07-29T06:15:37;8.93;;;4.38;;
21036;SDS011;10677;50.942;4.028;2022-07-29T06:18:02;9.05;;;4.20;;
21036;SDS011;10677;50.942;4.028;2022-07-29T06:20:28;8.60;;;4.20;;
21036;SDS011;10677;50.942;4.028;2022-07-29T06:22:55;7.80;;;3.90;;
21036;SDS011;10677;50.942;4.028;2022-07-29T06:25:21;8.77;;;4.03;;
21036;SDS011;10677;50.942;4.028;2022-07-29T06:27:46;7.10;;;3.80;;
21036;SDS011;10677;50.942;4.028;2022-07-29T06:30:12;9.45;;;4.93;;
21036;SDS011;10677;50.942;4.028;2022-07-29T06:32:38;8.18;;;4.72;;
21036;SDS011;10677;50.942;4.028;2022-07-29T06:35:04;9.73;;;4.15;;
21036;SDS011;10677;50.942;4.028;2022-07-29T06:37:30;6.80;;;4.20;;
21036;SDS011;10677;50.942;4.028;2022-07-29T06:39:55;10.10;;;4.43;;
21036;SDS011;10677;50.942;4.028;2022-07-29T06:42:43;8.13;;;4.60;;
21036;SDS011;10677;50.942;4.028;2022-07-29T06:45:09;7.95;;;4.20;;
21036;SDS011;10677;50.942;4.028;2022-07-29T06:47:36;7.13;;;4.05;;
21036;SDS011;10677;50.942;4.028;2022-07-29T06:50:02;7.95;;;4.40;;
21036;SDS011;10677;50.942;4.028;2022-07-29T06:52:28;6.43;;;4.05;;
21036;SDS011;10677;50.942;4.028;2022-07-29T06:54:54;5.68;;;3.85;;
21036;SDS011;10677;50.942;4.028;2022-07-29T06:57:20;8.52;;;4.20;;
21036;SDS011;10677;50.942;4.028;2022-07-29T06:59:46;8.25;;;4.20;;
21036;SDS011;10677;50.942;4.028;2022-07-29T07:02:12;6.28;;;4.20;;
21036;SDS011;10677;50.942;4.028;2022-07-29T07:04:38;8.07;;;4.65;;
21036;SDS011;10677;50.942;4.028;2022-07-29T07:07:04;6.75;;;4.18;;
21036;SDS011;10677;50.942;4.028;2022-07-29T07:09:30;9.63;;;4.55;;
21036;SDS011;10677;50.942;4.028;2022-07-29T07:11:55;13.10;;;4.47;;
21036;SDS011;10677;50.942;4.028;2022-07-29T07:14:21;6.53;;;4.40;;
21036;SDS011;10677;50.942;4.028;2022-07-29T07:16:46;9.15;;;4.43;;
21036;SDS011;10677;50.942;4.028;2022-07-29T07:19:12;6.00;;;4.22;;
21036;SDS011;10677;50.942;4.028;2022-07-29T07:21:38;6.47;;;4.15;;
21036;SDS011;10677;50.942;4.028;2022-07-29T07:24:03;8.35;;;4.10;;
21036;SDS011;10677;50.942;4.028;2022-07-29T07:26:29;7.70;;;4.03;;
21036;SDS011;10677;50.942;4.028;2022-07-29T07:28:55;6.90;;;4.65;;
21036;SDS011;10677;50.942;4.028;2022-07-29T07:31:21;8.32;;;4.03;;
21036;SDS011;10677;50.942;4.028;2022-07-29T07:33:47;7.55;;;4.20;;
21036;SDS011;10677;50.942;4.028;2022-07-29T07:36:13;7.40;;;4.20;;
21036;SDS011;10677;50.942;4.028;2022-07-29T07:38:38;8.82;;;3.97;;
21036;SDS011;10677;50.942;4.028;2022-07-29T07:41:04;6.82;;;4.15;;
21036;SDS011;10677;50.942;4.028;2022-07-29T07:43:30;6.30;;;4.10;;
21036;SDS011;10677;50.942;4.028;2022-07-29T07:45:55;7.57;;;4.22;;
21036;SDS011;10677;50.942;4.028;2022-07-29T07:48:21;8.85;;;3.95;;
21036;SDS011;10677;50.942;4.028;2022-07-29T07:50:47;7.78;;;4.60;;
21036;SDS011;10677;50.942;4.028;2022-07-29T07:53:15;8.52;;;4.40;;
21036;SDS011;10677;50.942;4.028;2022-07-29T07:55:41;7.15;;;4.72;;
21036;SDS011;10677;50.942;4.028;2022-07-29T07:58:08;8.13;;;4.50;;
21036;SDS011;10677;50.942;4.028;2022-07-29T08:00:34;7.57;;;4.72;;
21036;SDS011;10677;50.942;4.028;2022-07-29T08:03:00;7.13;;;4.38;;
21036;SDS011;10677;50.942;4.028;2022-07-29T08:05:25;9.80;;;4.45;;
21036;SDS011;10677;50.942;4.028;2022-07-29T08:07:51;9.32;;;4.80;;
21036;SDS011;10677;50.942;4.028;2022-07-29T08:10:17;9.07;;;4.32;;
21036;SDS011;10677;50.942;4.028;2022-07-29T08:13:04;8.07;;;4.70;;
21036;SDS011;10677;50.942;4.028;2022-07-29T08:15:34;5.80;;;4.15;;
21036;SDS011;10677;50.942;4.028;2022-07-29T08:18:00;8.88;;;4.57;;
21036;SDS011;10677;50.942;4.028;2022-07-29T08:20:26;4.93;;;4.00;;
21036;SDS011;10677;50.942;4.028;2022-07-29T08:22:52;8.93;;;4.85;;
21036;SDS011;10677;50.942;4.028;2022-07-29T08:25:18;7.53;;;4.35;;
21036;SDS011;10677;50.942;4.028;2022-07-29T08:27:47;7.93;;;3.95;;
21036;SDS011;10677;50.942;4.028;2022-07-29T08:30:13;8.27;;;4.38;;
21036;SDS011;10677;50.942;4.028;2022-07-29T08:32:39;6.97;;;4.40;;
21036;SDS011;10677;50.942;4.028;2022-07-29T08:35:05;10.40;;;4.22;;
21036;SDS011;10677;50.942;4.028;2022-07-29T08:37:31;9.30;;;4.30;;
21036;SDS011;10677;50.942;4.028;2022-07-29T08:39:56;11.80;;;4.13;;
21036;SDS011;10677;50.942;4.028;2022-07-29T08:42:22;8.57;;;3.90;;
21036;SDS011;10677;50.942;4.028;2022-07-29T08:44:48;9.48;;;4.22;;
21036;SDS011;10677;50.942;4.028;2022-07-29T08:47:14;9.25;;;4.93;;
21036;SDS011;10677;50.942;4.028;2022-07-29T08:49:40;10.73;;;4.47;;
21036;SDS011;10677;50.942;4.028;2022-07-29T08:52:05;5.97;;;4.45;;
21036;SDS011;10677;50.942;4.028;2022-07-29T08:54:32;10.70;;;4.78;;
21036;SDS011;10677;50.942;4.028;2022-07-29T08:56:58;8.68;;;5.03;;
21036;SDS011;10677;50.942;4.028;2022-07-29T08:59:26;9.32;;;4.85;;
21036;SDS011;10677;50.942;4.028;2022-07-29T09:01:54;8.95;;;4.75;;
21036;SDS011;10677;50.942;4.028;2022-07-29T09:04:22;6.25;;;4.05;;
21036;SDS011;10677;50.942;4.028;2022-07-29T09:06:52;9.35;;;4.20;;
21036;SDS011;10677;50.942;4.028;2022-07-29T09:09:21;8.75;;;4.22;;
21036;SDS011;10677;50.942;4.028;2022-07-29T09:11:47;6.13;;;4.35;;
21036;SDS011;10677;50.942;4.028;2022-07-29T09:14:13;6.53;;;4.07;;
21036;SDS011;10677;50.942;4.028;2022-07-29T09:16:47;5.20;;;3.40;;
21036;SDS011;10677;50.942;4.028;2022-07-29T09:19:26;7.00;;;3.58;;
21036;SDS011;10677;50.942;4.028;2022-07-29T09:21:54;5.68;;;4.10;;
21036;SDS011;10677;50.942;4.028;2022-07-29T09:24:27;10.65;;;4.78;;
21036;SDS011;10677;50.942;4.028;2022-07-29T09:27:18;8.88;;;4.10;;
21036;SDS011;10677;50.942;4.028;2022-07-29T09:30:06;6.78;;;4.10;;
21036;SDS011;10677;50.942;4.028;2022-07-29T09:32:54;10.93;;;4.18;;
21036;SDS011;10677;50.942;4.028;2022-07-29T09:35:26;9.15;;;4.32;;
21036;SDS011;10677;50.942;4.028;2022-07-29T09:37:53;11.00;;;4.45;;
21036;SDS011;10677;50.942;4.028;2022-07-29T09:40:22;9.18;;;4.38;;
21036;SDS011;10677;50.942;4.028;2022-07-29T09:42:49;10.75;;;4.70;;
21036;SDS011;10677;50.942;4.028;2022-07-29T09:45:26;9.35;;;5.18;;
21036;SDS011;10677;50.942;4.028;2022-07-29T09:47:56;8.07;;;4.55;;
21036;SDS011;10677;50.942;4.028;2022-07-29T09:50:40;6.78;;;3.78;;
21036;SDS011;10677;50.942;4.028;2022-07-29T09:53:07;8.27;;;4.90;;
21036;SDS011;10677;50.942;4.028;2022-07-29T09:55:49;7.63;;;3.85;;
21036;SDS011;10677;50.942;4.028;2022-07-29T09:58:19;8.68;;;2.67;;
21036;SDS011;10677;50.942;4.028;2022-07-29T10:00:46;5.50;;;3.05;;
21036;SDS011;10677;50.942;4.028;2022-07-29T10:03:13;7.28;;;2.83;;
21036;SDS011;10677;50.942;4.028;2022-07-29T10:05:40;6.57;;;3.00;;
21036;SDS011;10677;50.942;4.028;2022-07-29T10:08:07;9.35;;;2.67;;
21036;SDS011;10677;50.942;4.028;2022-07-29T10:10:34;9.63;;;2.80;;
21036;SDS011;10677;50.942;4.028;2022-07-29T10:13:12;5.72;;;3.17;;
21036;SDS011;10677;50.942;4.028;2022-07-29T10:15:39;7.45;;;2.67;;
21036;SDS011;10677;50.942;4.028;2022-07-29T10:18:09;3.97;;;2.25;;
21036;SDS011;10677;50.942;4.028;2022-07-29T10:20:36;9.88;;;2.80;;
21036;SDS011;10677;50.942;4.028;2022-07-29T10:23:02;5.68;;;2.67;;
21036;SDS011;10677;50.942;4.028;2022-07-29T10:25:29;6.72;;;2.72;;
21036;SDS011;10677;50.942;4.028;2022-07-29T10:27:55;9.55;;;2.85;;
21036;SDS011;10677;50.942;4.028;2022-07-29T10:30:21;4.60;;;2.05;;
21036;SDS011;10677;50.942;4.028;2022-07-29T10:44:02;6.75;;;1.88;;
21036;SDS011;10677;50.942;4.028;2022-07-29T10:46:34;5.22;;;2.03;;
21036;SDS011;10677;50.942;4.028;2022-07-29T10:49:07;6.45;;;1.80;;
21036;SDS011;10677;50.942;4.028;2022-07-29T10:54:47;3.95;;;1.80;;
21036;SDS011;10677;50.942;4.028;2022-07-29T10:57:22;5.43;;;1.70;;
21036;SDS011;10677;50.942;4.028;2022-07-29T11:07:23;6.15;;;2.00;;
21036;SDS011;10677;50.942;4.028;2022-07-29T11:15:03;8.02;;;2.38;;
21036;SDS011;10677;50.942;4.028;2022-07-29T11:20:44;5.43;;;1.38;;
21036;SDS011;10677;50.942;4.028;2022-07-29T11:34:20;6.43;;;2.10;;
21036;SDS011;10677;50.942;4.028;2022-07-29T11:47:37;5.43;;;1.70;;
21036;SDS011;10677;50.942;4.028;2022-07-29T11:50:06;4.95;;;1.90;;
21036;SDS011;10677;50.942;4.028;2022-07-29T11:52:37;3.47;;;1.48;;
21036;SDS011;10677;50.942;4.028;2022-07-29T11:55:09;6.22;;;1.40;;
21036;SDS011;10677;50.942;4.028;2022-07-29T11:57:37;3.75;;;1.20;;
21036;SDS011;10677;50.942;4.028;2022-07-29T12:00:22;5.07;;;1.50;;
21036;SDS011;10677;50.942;4.028;2022-07-29T12:03:03;11.38;;;2.17;;
21036;SDS011;10677;50.942;4.028;2022-07-29T12:05:34;5.60;;;1.60;;
21036;SDS011;10677;50.942;4.028;2022-07-29T12:08:09;5.07;;;1.65;;
21036;SDS011;10677;50.942;4.028;2022-07-29T12:10:40;6.35;;;1.90;;
21036;SDS011;10677;50.942;4.028;2022-07-29T12:13:06;4.65;;;1.73;;
21036;SDS011;10677;50.942;4.028;2022-07-29T12:15:32;4.45;;;1.60;;
21036;SDS011;10677;50.942;4.028;2022-07-29T12:17:58;5.70;;;1.45;;
21036;SDS011;10677;50.942;4.028;2022-07-29T12:20:34;3.92;;;1.85;;
21036;SDS011;10677;50.942;4.028;2022-07-29T12:23:04;3.67;;;1.20;;
21036;SDS011;10677;50.942;4.028;2022-07-29T12:25:32;5.90;;;1.83;;
21036;SDS011;10677;50.942;4.028;2022-07-29T12:28:03;8.77;;;2.00;;
21036;SDS011;10677;50.942;4.028;2022-07-29T12:30:41;5.07;;;1.70;;
21036;SDS011;10677;50.942;4.028;2022-07-29T12:33:14;5.88;;;1.73;;
21036;SDS011;10677;50.942;4.028;2022-07-29T12:35:51;4.97;;;1.33;;
21036;SDS011;10677;50.942;4.028;2022-07-29T12:38:20;5.13;;;1.50;;
21036;SDS011;10677;50.942;4.028;2022-07-29T12:40:46;6.35;;;2.13;;
21036;SDS011;10677;50.942;4.028;2022-07-29T12:43:14;7.10;;;1.90;;
21036;SDS011;10677;50.942;4.028;2022-07-29T12:45:43;6.55;;;1.73;;
21036;SDS011;10677;50.942;4.028;2022-07-29T12:48:11;5.05;;;1.92;;
21036;SDS011;10677;50.942;4.028;2022-07-29T12:50:51;7.15;;;1.85;;
21036;SDS011;10677;50.942;4.028;2022-07-29T12:53:24;6.25;;;2.00;;
21036;SDS011;10677;50.942;4.028;2022-07-29T12:55:51;4.50;;;2.17;;
21036;SDS011;10677;50.942;4.028;2022-07-29T12:58:27;4.97;;;2.08;;
21036;SDS011;10677;50.942;4.028;2022-07-29T13:01:10;6.43;;;2.10;;
21036;SDS011;10677;50.942;4.028;2022-07-29T13:06:35;4.35;;;2.00;;
21036;SDS011;10677;50.942;4.028;2022-07-29T13:09:11;5.00;;;1.80;;
21036;SDS011;10677;50.942;4.028;2022-07-29T13:11:54;4.93;;;1.40;;
21036;SDS011;10677;50.942;4.028;2022-07-29T13:14:36;5.63;;;1.92;;
21036;SDS011;10677;50.942;4.028;2022-07-29T13:19:51;6.25;;;2.17;;
21036;SDS011;10677;50.942;4.028;2022-07-29T13:22:28;6.53;;;2.60;;
21036;SDS011;10677;50.942;4.028;2022-07-29T13:24:55;3.90;;;1.90;;
21036;SDS011;10677;50.942;4.028;2022-07-29T13:27:24;5.60;;;2.10;;
21036;SDS011;10677;50.942;4.028;2022-07-29T13:29:51;6.05;;;2.17;;
21036;SDS011;10677;50.942;4.028;2022-07-29T13:32:18;6.10;;;2.22;;
21036;SDS011;10677;50.942;4.028;2022-07-29T13:34:45;4.93;;;2.10;;
21036;SDS011;10677;50.942;4.028;2022-07-29T13:37:10;7.05;;;3.35;;
21036;SDS011;10677;50.942;4.028;2022-07-29T13:39:36;6.95;;;3.10;;
21036;SDS011;10677;50.942;4.028;2022-07-29T13:42:02;7.28;;;3.38;;
21036;SDS011;10677;50.942;4.028;2022-07-29T13:44:28;9.13;;;4.20;;
21036;SDS011;10677;50.942;4.028;2022-07-29T13:46:54;5.68;;;2.70;;
21036;SDS011;10677;50.942;4.028;2022-07-29T13:49:20;7.53;;;3.13;;
21036;SDS011;10677;50.942;4.028;2022-07-29T13:51:47;7.28;;;3.53;;
21036;SDS011;10677;50.942;4.028;2022-07-29T13:54:14;5.38;;;3.28;;
21036;SDS011;10677;50.942;4.028;2022-07-29T13:56:39;9.70;;;3.25;;
21036;SDS011;10677;50.942;4.028;2022-07-29T13:59:05;6.10;;;2.60;;
21036;SDS011;10677;50.942;4.028;2022-07-29T14:01:30;9.75;;;2.97;;
21036;SDS011;10677;50.942;4.028;2022-07-29T14:03:56;5.50;;;3.00;;
21036;SDS011;10677;50.942;4.028;2022-07-29T14:06:22;7.75;;;3.28;;
21036;SDS011;10677;50.942;4.028;2022-07-29T14:08:47;5.25;;;3.17;;
21036;SDS011;10677;50.942;4.028;2022-07-29T14:11:13;9.77;;;3.22;;
21036;SDS011;10677;50.942;4.028;2022-07-29T14:13:39;6.07;;;3.58;;
21036;SDS011;10677;50.942;4.028;2022-07-29T14:16:04;7.05;;;2.92;;
21036;SDS011;10677;50.942;4.028;2022-07-29T14:18:31;5.63;;;2.83;;
21036;SDS011;10677;50.942;4.028;2022-07-29T14:20:57;8.18;;;3.83;;
21036;SDS011;10677;50.942;4.028;2022-07-29T14:23:23;6.00;;;2.78;;
21036;SDS011;10677;50.942;4.028;2022-07-29T14:25:49;5.43;;;3.00;;
21036;SDS011;10677;50.942;4.028;2022-07-29T14:28:14;7.38;;;3.38;;
21036;SDS011;10677;50.942;4.028;2022-07-29T14:30:40;8.50;;;2.83;;
21036;SDS011;10677;50.942;4.028;2022-07-29T14:33:06;6.43;;;2.95;;
21036;SDS011;10677;50.942;4.028;2022-07-29T14:35:31;5.97;;;3.10;;
21036;SDS011;10677;50.942;4.028;2022-07-29T14:37:57;5.65;;;2.90;;
21036;SDS011;10677;50.942;4.028;2022-07-29T14:40:23;7.18;;;2.53;;
21036;SDS011;10677;50.942;4.028;2022-07-29T14:42:48;7.88;;;2.22;;
21036;SDS011;10677;50.942;4.028;2022-07-29T14:45:14;8.07;;;2.30;;
21036;SDS011;10677;50.942;4.028;2022-07-29T14:47:39;4.95;;;2.28;;
21036;SDS011;10677;50.942;4.028;2022-07-29T14:50:05;4.97;;;1.70;;
21036;SDS011;10677;50.942;4.028;2022-07-29T14:52:31;3.25;;;1.90;;
21036;SDS011;10677;50.942;4.028;2022-07-29T14:54:57;12.23;;;2.05;;
21036;SDS011;10677;50.942;4.028;2022-07-29T14:57:23;7.13;;;1.90;;
21036;SDS011;10677;50.942;4.028;2022-07-29T14:59:49;5.40;;;2.15;;
21036;SDS011;10677;50.942;4.028;2022-07-29T15:02:14;5.28;;;1.70;;
21036;SDS011;10677;50.942;4.028;2022-07-29T15:04:40;6.28;;;1.95;;
21036;SDS011;10677;50.942;4.028;2022-07-29T15:07:05;5.78;;;1.30;;
21036;SDS011;10677;50.942;4.028;2022-07-29T15:09:31;2.67;;;1.30;;
21036;SDS011;10677;50.942;4.028;2022-07-29T15:11:57;7.03;;;1.45;;
21036;SDS011;10677;50.942;4.028;2022-07-29T15:14:22;2.78;;;1.20;;
21036;SDS011;10677;50.942;4.028;2022-07-29T15:16:48;3.67;;;1.40;;
21036;SDS011;10677;50.942;4.028;2022-07-29T15:19:14;9.10;;;1.92;;
21036;SDS011;10677;50.942;4.028;2022-07-29T15:21:39;4.15;;;1.70;;
21036;SDS011;10677;50.942;4.028;2022-07-29T15:24:05;3.58;;;1.48;;
21036;SDS011;10677;50.942;4.028;2022-07-29T15:26:32;5.03;;;1.73;;
21036;SDS011;10677;50.942;4.028;2022-07-29T15:28:57;7.15;;;1.90;;
21036;SDS011;10677;50.942;4.028;2022-07-29T15:31:24;3.80;;;1.48;;
21036;SDS011;10677;50.942;4.028;2022-07-29T15:33:49;3.65;;;1.42;;
21036;SDS011;10677;50.942;4.028;2022-07-29T15:36:15;3.67;;;1.67;;
21036;SDS011;10677;50.942;4.028;2022-07-29T15:38:40;4.68;;;1.58;;
21036;SDS011;10677;50.942;4.028;2022-07-29T15:41:06;5.35;;;1.38;;
21036;SDS011;10677;50.942;4.028;2022-07-29T15:43:32;4.88;;;1.77;;
21036;SDS011;10677;50.942;4.028;2022-07-29T15:46:00;6.68;;;2.00;;
21036;SDS011;10677;50.942;4.028;2022-07-29T15:48:44;5.72;;;2.00;;
21036;SDS011;10677;50.942;4.028;2022-07-29T15:51:10;5.82;;;2.10;;
21036;SDS011;10677;50.942;4.028;2022-07-29T15:53:35;5.95;;;1.85;;
21036;SDS011;10677;50.942;4.028;2022-07-29T15:56:01;5.60;;;1.73;;
21036;SDS011;10677;50.942;4.028;2022-07-29T15:58:28;6.40;;;2.33;;
21036;SDS011;10677;50.942;4.028;2022-07-29T16:00:54;5.25;;;1.58;;
21036;SDS011;10677;50.942;4.028;2022-07-29T16:03:20;6.30;;;2.05;;
21036;SDS011;10677;50.942;4.028;2022-07-29T16:05:46;5.20;;;1.80;;